createdAt,value
2016-09-25T05:29:24.702Z,0
2016-09-25T05:29:50.264Z,0
2016-09-25T05:30:15.834Z,0
2016-09-25T05:30:41.401Z,0
2016-09-25T05:31:07.094Z,0
2016-09-25T05:31:32.737Z,0
2016-09-25T05:31:58.319Z,0
2016-09-25T05:32:23.957Z,0
2016-09-25T05:32:49.680Z,0
2016-09-25T05:33:15.230Z,0
2016-09-25T05:33:40.811Z,0
2016-09-25T05:35:04.493Z,0
2016-09-25T05:35:30.069Z,0
2016-09-25T05:35:55.614Z,0
2016-09-25T05:36:21.165Z,0
2016-09-25T05:36:46.732Z,0
2016-09-25T05:37:12.321Z,0
2016-09-25T05:37:37.888Z,0
2016-09-25T05:38:03.461Z,0
2016-09-25T05:38:29.021Z,0
2016-09-25T05:38:54.561Z,0
2016-09-25T05:39:20.273Z,0
2016-09-25T05:39:45.836Z,0
2016-09-25T05:40:11.402Z,0
2016-09-25T05:40:36.975Z,0
2016-09-25T05:41:02.536Z,0
2016-09-25T05:41:28.091Z,0
2016-09-25T05:41:53.698Z,0
2016-09-25T05:42:19.262Z,0
2016-09-25T05:42:44.836Z,0
2016-09-25T05:43:10.419Z,0
2016-09-25T05:43:35.960Z,0
2016-09-25T05:44:01.520Z,0
2016-09-25T05:44:27.241Z,0
2016-09-25T05:44:52.815Z,0
2016-09-25T05:45:18.380Z,0
2016-09-25T05:45:43.933Z,0
2016-09-25T05:46:09.519Z,0
2016-09-25T05:46:35.073Z,0
2016-09-25T05:47:00.712Z,0
2016-09-25T05:47:26.293Z,0
2016-09-25T05:47:51.859Z,0
2016-09-25T05:48:17.411Z,0
2016-09-25T05:48:42.990Z,0
2016-09-25T05:49:08.561Z,0
2016-09-25T05:49:34.137Z,0
2016-09-25T05:49:59.698Z,0
2016-09-25T05:50:25.267Z,0
2016-09-25T05:50:50.822Z,0
2016-09-25T05:51:16.383Z,0
2016-09-25T05:51:42.053Z,0
2016-09-25T05:52:07.614Z,0
2016-09-25T05:52:33.191Z,0
2016-09-25T05:52:58.793Z,0
2016-09-25T05:53:24.364Z,0
2016-09-25T05:53:49.924Z,0
2016-09-25T05:54:15.482Z,0
2016-09-25T05:54:41.043Z,0
2016-09-25T05:55:06.613Z,0
2016-09-25T05:55:32.211Z,0
2016-09-25T05:55:57.787Z,0
2016-09-25T05:56:23.349Z,0
2016-09-25T05:56:48.994Z,0
2016-09-25T05:57:14.574Z,0
2016-09-25T05:57:40.113Z,0
2016-09-25T05:58:05.683Z,0
2016-09-25T05:58:31.428Z,0
2016-09-25T05:58:56.981Z,0
2016-09-25T05:59:22.556Z,0
2016-09-25T05:59:48.164Z,0
2016-09-25T06:01:12.086Z,0
2016-09-25T06:01:37.934Z,0
2016-09-25T06:02:03.492Z,0
2016-09-25T06:02:29.066Z,0
2016-09-25T06:02:54.664Z,0
2016-09-25T06:03:20.319Z,0
2016-09-25T06:03:45.866Z,0
2016-09-25T06:05:09.561Z,0
2016-09-25T06:07:16.644Z,5
2016-09-25T06:08:45.523Z,5
2016-09-25T06:09:11.106Z,5
2016-09-25T06:09:36.740Z,5
2016-09-25T06:10:02.380Z,5
2016-09-25T06:10:27.990Z,5
2016-09-25T06:11:41.396Z,5
2016-09-25T06:12:06.945Z,5
2016-09-25T06:12:32.503Z,5
2016-09-25T06:12:58.215Z,5
2016-09-25T06:13:24.049Z,5
2016-09-25T06:13:49.620Z,5
2016-09-25T06:14:15.212Z,5
2016-09-25T06:14:40.770Z,5
2016-09-25T06:15:06.330Z,5
2016-09-25T06:15:31.906Z,5
2016-09-25T06:15:57.510Z,5
2016-09-25T06:16:23.103Z,5
2016-09-25T06:16:48.700Z,5
2016-09-25T06:17:14.272Z,5
2016-09-25T06:17:39.829Z,5
2016-09-25T06:18:05.421Z,5
2016-09-25T06:18:31.045Z,5
2016-09-25T06:18:56.634Z,5
2016-09-25T06:19:22.292Z,5
2016-09-25T06:19:47.841Z,5
2016-09-25T06:20:13.610Z,5
2016-09-25T06:20:39.189Z,5
2016-09-25T06:21:04.744Z,5
2016-09-25T06:21:30.310Z,5
2016-09-25T06:21:55.896Z,5
2016-09-25T06:22:21.501Z,5
2016-09-25T06:22:47.063Z,5
2016-09-25T06:23:12.616Z,5
2016-09-25T06:23:38.179Z,5
2016-09-25T06:24:03.929Z,5
2016-09-25T06:24:29.512Z,5
2016-09-25T06:24:55.178Z,5
2016-09-25T06:25:20.793Z,5
2016-09-25T06:25:46.346Z,5
2016-09-25T06:26:11.892Z,5
2016-09-25T06:26:37.482Z,5
2016-09-25T06:27:03.081Z,5
2016-09-25T06:27:28.648Z,5
2016-09-25T06:27:54.214Z,5
2016-09-25T06:28:19.933Z,5
2016-09-25T06:28:45.504Z,5
2016-09-25T06:29:11.069Z,5
2016-09-25T06:29:36.624Z,5
2016-09-25T06:31:05.634Z,5
2016-09-25T06:31:31.270Z,5
2016-09-25T06:31:56.818Z,5
2016-09-25T06:32:22.363Z,5
2016-09-25T06:32:47.964Z,5
2016-09-25T06:33:13.922Z,5
2016-09-25T06:33:39.753Z,5
2016-09-25T06:34:05.556Z,5
2016-09-25T06:34:31.212Z,5
2016-09-25T06:34:56.772Z,5
2016-09-25T06:35:22.331Z,5
2016-09-25T06:35:48.008Z,5
2016-09-25T06:36:13.551Z,5
2016-09-25T06:36:39.329Z,5
2016-09-25T06:37:04.886Z,5
2016-09-25T06:38:23.832Z,5
2016-09-25T06:38:49.564Z,5
2016-09-25T06:39:15.129Z,5
2016-09-25T06:39:40.691Z,5
2016-09-25T06:40:06.236Z,5
2016-09-25T06:40:35.187Z,5
2016-09-25T06:41:00.647Z,5
2016-09-25T06:41:26.191Z,5
2016-09-25T06:41:51.816Z,5
2016-09-25T06:42:17.424Z,5
2016-09-25T06:42:42.975Z,5
2016-09-25T06:43:08.520Z,5
2016-09-25T06:43:34.077Z,5
2016-09-25T06:44:12.610Z,5
2016-09-25T06:44:38.155Z,5
2016-09-25T06:45:03.717Z,5
2016-09-25T06:46:19.324Z,5
2016-09-25T06:46:44.887Z,5
2016-09-25T06:47:10.525Z,5
2016-09-25T06:47:36.087Z,5
2016-09-25T06:48:01.648Z,5
2016-09-25T06:48:27.208Z,5
2016-09-25T06:48:52.754Z,5
2016-09-25T06:49:18.330Z,5
2016-09-25T06:49:44.079Z,5
2016-09-25T06:50:09.812Z,5
2016-09-25T06:50:35.376Z,5
2016-09-25T06:51:00.987Z,5
2016-09-25T06:51:26.548Z,5
2016-09-25T06:51:52.197Z,5
2016-09-25T06:52:17.740Z,5
2016-09-25T06:52:43.294Z,5
2016-09-25T06:53:08.844Z,5
2016-09-25T06:53:34.404Z,5
2016-09-25T06:53:59.972Z,5
2016-09-25T06:54:25.581Z,5
2016-09-25T06:54:51.182Z,5
2016-09-25T06:55:16.754Z,5
2016-09-25T06:55:42.305Z,5
2016-09-25T06:56:07.924Z,5
2016-09-25T06:56:33.501Z,5
2016-09-25T06:56:59.084Z,5
2016-09-25T06:57:24.647Z,5
2016-09-25T06:57:50.212Z,5
2016-09-25T06:58:15.880Z,5
2016-09-25T06:58:41.412Z,5
2016-09-25T06:59:06.935Z,5
2016-09-25T06:59:32.476Z,5
2016-09-25T06:59:58.007Z,5
2016-09-25T07:00:23.569Z,5
2016-09-25T07:00:49.104Z,5
2016-09-25T07:01:14.695Z,5
2016-09-25T07:01:40.243Z,5
2016-09-25T07:02:05.796Z,5
2016-09-25T07:02:31.336Z,5
2016-09-25T07:02:56.883Z,5
2016-09-25T07:03:22.473Z,5
2016-09-25T07:03:48.005Z,5
2016-09-25T07:04:13.571Z,5
2016-09-25T07:04:39.128Z,5
2016-09-25T07:05:04.689Z,5
2016-09-25T07:05:30.296Z,5
2016-09-25T07:05:55.823Z,5
2016-09-25T07:06:21.406Z,5
2016-09-25T07:06:47.131Z,5
2016-09-25T07:07:12.716Z,5
2016-09-25T07:07:38.302Z,5
2016-09-25T07:08:03.853Z,5
2016-09-25T07:08:29.419Z,5
2016-09-25T07:08:54.990Z,5
2016-09-25T07:09:20.627Z,5
2016-09-25T07:09:46.329Z,5
2016-09-25T07:10:11.906Z,5
2016-09-25T07:10:37.489Z,5
2016-09-25T07:11:03.071Z,5
2016-09-25T07:11:28.755Z,5
2016-09-25T07:11:54.368Z,5
2016-09-25T07:12:19.983Z,5
2016-09-25T07:12:45.615Z,5
2016-09-25T07:13:11.207Z,5
2016-09-25T07:13:36.773Z,5
2016-09-25T07:14:02.352Z,5
2016-09-25T07:14:27.982Z,5
2016-09-25T07:14:53.547Z,5
2016-09-25T07:15:19.199Z,5
2016-09-25T07:15:44.932Z,5
2016-09-25T07:16:10.511Z,5
2016-09-25T07:16:36.085Z,5
2016-09-25T07:17:01.670Z,5
2016-09-25T07:17:27.228Z,5
2016-09-25T07:18:45.811Z,5
2016-09-25T07:20:09.445Z,5
2016-09-25T07:20:35.002Z,5
2016-09-25T07:22:42.261Z,5
2016-09-25T07:23:07.797Z,5
2016-09-25T07:23:33.375Z,5
2016-09-25T07:23:58.926Z,5
2016-09-25T07:24:24.489Z,5
2016-09-25T07:24:50.045Z,5
2016-09-25T07:25:15.747Z,5
2016-09-25T07:25:41.433Z,5
2016-09-25T07:26:07.000Z,5
2016-09-25T07:26:32.575Z,5
2016-09-25T07:26:58.227Z,5
2016-09-25T07:28:06.578Z,5
2016-09-25T07:28:32.306Z,5
2016-09-25T07:28:57.873Z,5
2016-09-25T07:29:23.438Z,5
2016-09-25T07:29:49.137Z,5
2016-09-25T07:30:14.702Z,5
2016-09-25T07:30:40.279Z,5
2016-09-25T07:31:05.860Z,5
2016-09-25T07:31:31.433Z,5
2016-09-25T07:31:56.990Z,5
2016-09-25T07:32:22.586Z,5
2016-09-25T07:32:48.145Z,5
2016-09-25T07:33:13.706Z,5
2016-09-25T07:33:39.268Z,5
2016-09-25T07:34:04.819Z,10
2016-09-25T07:34:30.363Z,5
2016-09-25T07:34:55.996Z,5
2016-09-25T07:35:21.548Z,5
2016-09-25T07:35:47.099Z,5
2016-09-25T07:36:12.639Z,10
2016-09-25T07:36:38.206Z,5
2016-09-25T07:37:03.762Z,10
2016-09-25T07:37:29.359Z,10
2016-09-25T07:37:54.939Z,10
2016-09-25T07:38:20.504Z,10
2016-09-25T07:38:46.059Z,10
2016-09-25T07:39:11.643Z,10
2016-09-25T07:39:37.296Z,10
2016-09-25T07:40:02.912Z,10
2016-09-25T07:40:28.483Z,10
2016-09-25T07:40:54.031Z,10
2016-09-25T07:41:19.607Z,10
2016-09-25T07:41:45.184Z,10
2016-09-25T07:42:10.880Z,10
2016-09-25T07:42:36.469Z,10
2016-09-25T07:43:02.039Z,10
2016-09-25T07:43:27.600Z,10
2016-09-25T07:43:53.336Z,10
2016-09-25T07:44:19.137Z,10
2016-09-25T07:44:44.725Z,10
2016-09-25T07:45:10.557Z,10
2016-09-25T07:45:36.136Z,10
2016-09-25T07:46:01.697Z,10
2016-09-25T07:46:27.393Z,10
2016-09-25T07:46:52.978Z,10
2016-09-25T07:47:18.546Z,10
2016-09-25T07:47:44.104Z,10
2016-09-25T07:48:09.660Z,10
2016-09-25T07:48:35.221Z,10
2016-09-25T07:49:00.899Z,10
2016-09-25T07:49:26.558Z,10
2016-09-25T07:49:52.118Z,10
2016-09-25T07:50:17.695Z,10
2016-09-25T07:50:43.278Z,10
2016-09-25T07:51:08.850Z,10
2016-09-25T07:51:34.409Z,10
2016-09-25T07:51:59.979Z,10
2016-09-25T07:52:25.557Z,10
2016-09-25T07:52:51.159Z,10
2016-09-25T07:53:16.733Z,10
2016-09-25T07:53:42.330Z,10
2016-09-25T07:54:07.882Z,10
2016-09-25T07:54:33.627Z,10
2016-09-25T07:54:59.219Z,10
2016-09-25T07:55:24.783Z,10
2016-09-25T07:55:50.373Z,10
2016-09-25T07:56:15.936Z,10
2016-09-25T07:56:41.509Z,10
2016-09-25T07:57:07.096Z,10
2016-09-25T07:57:32.636Z,10
2016-09-25T07:57:58.232Z,10
2016-09-25T07:58:23.799Z,10
2016-09-25T07:58:49.358Z,10
2016-09-25T07:59:14.928Z,10
2016-09-25T07:59:40.493Z,10
2016-09-25T08:00:06.122Z,10
2016-09-25T08:00:31.702Z,10
2016-09-25T08:00:57.370Z,10
2016-09-25T08:01:22.928Z,10
2016-09-25T08:01:48.496Z,10
2016-09-25T08:02:14.061Z,10
2016-09-25T08:02:39.636Z,10
2016-09-25T08:03:05.189Z,10
2016-09-25T08:03:30.764Z,10
2016-09-25T08:03:56.343Z,10
2016-09-25T08:04:21.904Z,10
2016-09-25T08:04:47.473Z,10
2016-09-25T08:05:13.036Z,10
2016-09-25T08:05:38.615Z,10
2016-09-25T08:06:04.203Z,10
2016-09-25T08:06:29.767Z,10
2016-09-25T08:06:55.362Z,10
2016-09-25T08:07:21.159Z,10
2016-09-25T08:07:46.744Z,10
2016-09-25T08:08:12.324Z,10
2016-09-25T08:08:37.930Z,10
2016-09-25T08:09:03.496Z,10
2016-09-25T08:09:29.051Z,10
2016-09-25T08:09:54.642Z,10
2016-09-25T08:10:20.198Z,10
2016-09-25T08:10:45.796Z,10
2016-09-25T08:11:11.365Z,10
2016-09-25T08:11:36.926Z,10
2016-09-25T08:12:02.497Z,10
2016-09-25T08:12:28.141Z,10
2016-09-25T08:12:53.716Z,10
2016-09-25T08:13:19.289Z,10
2016-09-25T08:13:44.935Z,10
2016-09-25T08:14:10.500Z,10
2016-09-25T08:14:36.080Z,10
2016-09-25T08:15:01.654Z,10
2016-09-25T08:15:27.237Z,10
2016-09-25T08:15:52.864Z,10
2016-09-25T08:16:18.433Z,10
2016-09-25T08:16:44.086Z,10
2016-09-25T08:17:09.641Z,10
2016-09-25T08:17:35.208Z,10
2016-09-25T08:18:00.792Z,10
2016-09-25T08:18:26.346Z,10
2016-09-25T08:18:51.913Z,10
2016-09-25T08:19:17.492Z,10
2016-09-25T08:19:43.114Z,10
2016-09-25T08:20:08.674Z,10
2016-09-25T08:20:34.245Z,10
2016-09-25T08:20:59.832Z,10
2016-09-25T08:21:25.390Z,10
2016-09-25T08:21:50.964Z,10
2016-09-25T08:22:16.739Z,10
2016-09-25T08:22:42.322Z,10
2016-09-25T08:24:06.089Z,10
2016-09-25T08:24:31.631Z,10
2016-09-25T08:24:57.262Z,10
2016-09-25T08:25:22.817Z,10
2016-09-25T08:25:48.395Z,10
2016-09-25T08:26:13.958Z,10
2016-09-25T08:26:39.503Z,10
2016-09-25T08:27:05.079Z,10
2016-09-25T08:27:30.636Z,10
2016-09-25T08:27:56.216Z,10
2016-09-25T08:28:21.779Z,10
2016-09-25T08:28:47.329Z,10
2016-09-25T08:29:12.914Z,10
2016-09-25T08:29:38.478Z,10
2016-09-25T08:30:04.114Z,10
2016-09-25T08:30:29.672Z,10
2016-09-25T08:30:55.268Z,10
2016-09-25T08:31:20.864Z,10
2016-09-25T08:31:46.631Z,10
2016-09-25T08:32:12.291Z,10
2016-09-25T08:32:37.877Z,10
2016-09-25T08:33:03.579Z,10
2016-09-25T08:33:29.182Z,10
2016-09-25T08:33:54.786Z,10
2016-09-25T08:34:20.416Z,10
2016-09-25T08:34:46.024Z,10
2016-09-25T08:35:11.582Z,10
2016-09-25T08:35:37.162Z,10
2016-09-25T08:36:02.715Z,10
2016-09-25T08:36:28.309Z,10
2016-09-25T08:36:53.959Z,10
2016-09-25T08:37:19.534Z,10
2016-09-25T08:37:45.140Z,10
2016-09-25T08:38:10.716Z,10
2016-09-25T08:38:36.366Z,10
2016-09-25T08:39:01.926Z,10
2016-09-25T08:39:27.519Z,10
2016-09-25T08:39:53.110Z,10
2016-09-25T08:40:18.786Z,10
2016-09-25T08:40:44.439Z,10
2016-09-25T08:41:10.001Z,10
2016-09-25T08:41:35.581Z,10
2016-09-25T08:42:01.177Z,10
2016-09-25T08:42:26.739Z,10
2016-09-25T08:42:52.326Z,10
2016-09-25T08:43:17.920Z,10
2016-09-25T08:43:43.517Z,10
2016-09-25T08:44:09.197Z,10
2016-09-25T08:44:34.755Z,10
2016-09-25T08:45:00.395Z,10
2016-09-25T08:45:25.981Z,10
2016-09-25T08:45:51.610Z,10
2016-09-25T08:46:17.236Z,10
2016-09-25T08:46:42.824Z,10
2016-09-25T08:48:06.568Z,10
2016-09-25T08:48:32.331Z,10
2016-09-25T08:48:57.925Z,10
2016-09-25T08:49:23.497Z,10
2016-09-25T08:49:49.144Z,10
2016-09-25T08:50:14.742Z,10
2016-09-25T08:50:40.323Z,10
2016-09-25T08:51:05.891Z,10
2016-09-25T08:51:31.482Z,10
2016-09-25T08:51:57.059Z,10
2016-09-25T08:53:10.524Z,10
2016-09-25T08:53:36.099Z,10
2016-09-25T08:54:01.880Z,10
2016-09-25T08:54:27.492Z,10
2016-09-25T08:54:53.041Z,10
2016-09-25T08:55:18.587Z,10
2016-09-25T08:55:44.139Z,10
2016-09-25T08:56:57.537Z,10
2016-09-25T08:57:23.116Z,10
2016-09-25T08:57:48.665Z,10
2016-09-25T08:58:14.235Z,10
2016-09-25T08:58:39.859Z,10
2016-09-25T08:59:05.456Z,10
2016-09-25T08:59:31.025Z,10
2016-09-25T08:59:56.589Z,10
2016-09-25T09:00:22.568Z,10
2016-09-25T09:00:48.122Z,10
2016-09-25T09:01:13.693Z,10
2016-09-25T09:01:39.272Z,10
2016-09-25T09:02:04.864Z,10
2016-09-25T09:02:30.426Z,10
2016-09-25T09:02:55.994Z,10
2016-09-25T09:03:21.576Z,10
2016-09-25T09:03:47.147Z,10
2016-09-25T09:04:12.715Z,10
2016-09-25T09:04:38.289Z,10
2016-09-25T09:05:03.861Z,10
2016-09-25T09:05:29.418Z,10
2016-09-25T09:05:55.066Z,10
2016-09-25T09:06:20.712Z,10
2016-09-25T09:06:46.219Z,10
2016-09-25T09:07:11.788Z,10
2016-09-25T09:07:37.393Z,10
2016-09-25T09:08:02.954Z,10
2016-09-25T09:08:28.549Z,10
2016-09-25T09:08:54.112Z,10
2016-09-25T09:09:19.711Z,10
2016-09-25T09:09:45.260Z,10
2016-09-25T09:10:10.832Z,10
2016-09-25T09:10:36.414Z,10
2016-09-25T09:11:01.965Z,10
2016-09-25T09:11:27.528Z,10
2016-09-25T09:11:53.063Z,10
2016-09-25T09:12:18.616Z,10
2016-09-25T09:12:44.171Z,10
2016-09-25T09:13:09.788Z,10
2016-09-25T09:13:35.360Z,10
2016-09-25T09:14:00.912Z,10
2016-09-25T09:14:26.456Z,10
2016-09-25T09:14:52.032Z,10
2016-09-25T09:15:17.586Z,10
2016-09-25T09:15:43.144Z,10
2016-09-25T09:16:08.722Z,10
2016-09-25T09:16:34.297Z,10
2016-09-25T09:16:59.825Z,10
2016-09-25T09:17:25.360Z,10
2016-09-25T09:17:50.917Z,10
2016-09-25T09:18:16.522Z,10
2016-09-25T09:18:42.075Z,10
2016-09-25T09:19:07.821Z,10
2016-09-25T09:19:33.389Z,10
2016-09-25T09:19:59.020Z,10
2016-09-25T09:20:24.582Z,10
2016-09-25T09:20:50.234Z,10
2016-09-25T09:21:15.841Z,10
2016-09-25T09:21:41.407Z,10
2016-09-25T09:22:06.962Z,10
2016-09-25T09:22:32.627Z,10
2016-09-25T09:22:58.187Z,10
2016-09-25T09:23:23.737Z,10
2016-09-25T09:23:49.337Z,10
2016-09-25T09:24:14.941Z,10
2016-09-25T09:24:40.499Z,10
2016-09-25T09:25:06.226Z,10
2016-09-25T09:25:31.783Z,10
2016-09-25T09:25:57.408Z,10
2016-09-25T09:26:23.000Z,10
2016-09-25T09:26:48.554Z,10
2016-09-25T09:27:14.123Z,10
2016-09-25T09:27:39.688Z,10
2016-09-25T09:28:05.286Z,10
2016-09-25T09:28:30.824Z,10
2016-09-25T09:28:56.380Z,10
2016-09-25T09:29:21.974Z,10
2016-09-25T09:29:47.525Z,10
2016-09-25T09:30:13.127Z,10
2016-09-25T09:30:38.723Z,10
2016-09-25T09:31:04.276Z,10
2016-09-25T09:31:29.860Z,10
2016-09-25T09:31:55.417Z,10
2016-09-25T09:32:21.028Z,10
2016-09-25T09:32:46.577Z,10
2016-09-25T09:33:12.151Z,10
2016-09-25T09:33:38.314Z,10
2016-09-25T09:34:03.492Z,10
2016-09-25T09:34:29.061Z,10
2016-09-25T09:34:54.637Z,10
2016-09-25T09:35:20.216Z,10
2016-09-25T09:35:45.764Z,15
2016-09-25T09:36:11.311Z,15
2016-09-25T09:36:36.958Z,15
2016-09-25T09:37:02.543Z,15
2016-09-25T09:38:31.316Z,15
2016-09-25T09:38:56.967Z,15
2016-09-25T09:39:22.511Z,15
2016-09-25T09:39:48.092Z,15
2016-09-25T09:40:13.694Z,15
2016-09-25T09:40:39.290Z,15
2016-09-25T09:41:04.820Z,15
2016-09-25T09:41:30.362Z,15
2016-09-25T09:41:55.907Z,15
2016-09-25T09:42:21.468Z,15
2016-09-25T09:42:47.100Z,15
2016-09-25T09:43:13.307Z,15
2016-09-25T09:43:39.818Z,15
2016-09-25T09:44:05.334Z,15
2016-09-25T09:44:31.425Z,15
2016-09-25T09:44:56.968Z,15
2016-09-25T09:45:24.468Z,15
2016-09-25T09:45:50.014Z,15
2016-09-25T09:46:17.207Z,15
2016-09-25T09:46:42.766Z,15
2016-09-25T09:47:08.404Z,15
2016-09-25T09:47:34.053Z,15
2016-09-25T09:47:59.662Z,15
2016-09-25T09:48:25.237Z,15
2016-09-25T09:48:50.903Z,15
2016-09-25T09:49:16.465Z,15
2016-09-25T09:49:42.030Z,15
2016-09-25T09:50:07.780Z,15
2016-09-25T09:51:31.588Z,15
2016-09-25T09:51:57.175Z,15
2016-09-25T09:52:22.737Z,15
2016-09-25T09:52:48.406Z,15
2016-09-25T09:53:14.968Z,15
2016-09-25T09:53:40.616Z,15
2016-09-25T09:54:06.177Z,15
2016-09-25T09:54:31.743Z,15
2016-09-25T09:54:57.318Z,15
2016-09-25T09:55:23.308Z,15
2016-09-25T09:55:48.866Z,15
2016-09-25T09:56:14.411Z,15
2016-09-25T09:56:40.017Z,15
2016-09-25T09:57:05.590Z,15
2016-09-25T09:57:31.147Z,15
2016-09-25T09:57:56.825Z,15
2016-09-25T09:58:22.458Z,15
2016-09-25T09:58:48.027Z,15
2016-09-25T09:59:13.648Z,15
2016-09-25T09:59:39.196Z,15
2016-09-25T10:00:04.830Z,15
2016-09-25T10:00:30.400Z,15
2016-09-25T10:00:55.970Z,15
2016-09-25T10:01:21.537Z,15
2016-09-25T10:01:47.104Z,15
2016-09-25T10:02:12.728Z,15
2016-09-25T10:02:38.302Z,15
2016-09-25T10:03:03.859Z,15
2016-09-25T10:03:29.414Z,15
2016-09-25T10:03:54.974Z,15
2016-09-25T10:04:20.557Z,15
2016-09-25T10:04:46.108Z,15
2016-09-25T10:05:11.751Z,15
2016-09-25T10:05:37.376Z,15
2016-09-25T10:06:02.937Z,15
2016-09-25T10:06:28.515Z,15
2016-09-25T10:06:54.213Z,15
2016-09-25T10:07:19.765Z,15
2016-09-25T10:07:45.320Z,15
2016-09-25T10:08:10.953Z,15
2016-09-25T10:08:36.523Z,15
2016-09-25T10:09:02.122Z,15
2016-09-25T10:09:27.709Z,15
2016-09-25T10:09:53.326Z,15
2016-09-25T10:10:18.898Z,15
2016-09-25T10:10:44.458Z,15
2016-09-25T10:11:10.028Z,15
2016-09-25T10:11:35.600Z,20
2016-09-25T10:12:01.218Z,20
2016-09-25T10:12:26.888Z,20
2016-09-25T10:12:52.486Z,20
2016-09-25T10:14:11.048Z,20
2016-09-25T10:14:36.631Z,20
2016-09-25T10:15:02.242Z,20
2016-09-25T10:16:15.325Z,20
2016-09-25T10:16:40.871Z,20
2016-09-25T10:17:06.449Z,20
2016-09-25T10:17:31.977Z,20
2016-09-25T10:17:57.870Z,20
2016-09-25T10:18:23.549Z,20
2016-09-25T10:18:49.703Z,20
2016-09-25T10:19:15.277Z,20
2016-09-25T10:19:40.834Z,20
2016-09-25T10:20:07.061Z,20
2016-09-25T10:20:32.712Z,20
2016-09-25T10:20:58.858Z,20
2016-09-25T10:21:24.421Z,20
2016-09-25T10:21:50.003Z,20
2016-09-25T10:22:16.346Z,20
2016-09-25T10:22:41.931Z,20
2016-09-25T10:23:08.001Z,20
2016-09-25T10:23:33.557Z,20
2016-09-25T10:23:59.776Z,20
2016-09-25T10:24:25.397Z,20
2016-09-25T10:24:51.000Z,20
2016-09-25T10:25:17.159Z,20
2016-09-25T10:25:42.745Z,20
2016-09-25T10:26:08.936Z,20
2016-09-25T10:26:34.502Z,20
2016-09-25T10:27:00.078Z,20
2016-09-25T10:27:26.415Z,20
2016-09-25T10:27:52.000Z,20
2016-09-25T10:28:18.158Z,20
2016-09-25T10:28:43.780Z,20
2016-09-25T10:29:09.893Z,20
2016-09-25T10:29:35.505Z,20
2016-09-25T10:30:01.086Z,20
2016-09-25T10:30:27.276Z,20
2016-09-25T10:30:53.006Z,20
2016-09-25T10:31:19.030Z,20
2016-09-25T10:31:44.693Z,25
2016-09-25T10:32:10.284Z,25
2016-09-25T10:32:36.425Z,25
2016-09-25T10:33:02.018Z,25
2016-09-25T10:33:28.217Z,25
2016-09-25T10:33:53.824Z,25
2016-09-25T10:34:20.073Z,25
2016-09-25T10:34:45.649Z,25
2016-09-25T10:35:11.213Z,25
2016-09-25T10:35:37.352Z,25
2016-09-25T10:36:02.929Z,25
2016-09-25T10:36:29.139Z,25
2016-09-25T10:36:54.710Z,25
2016-09-25T10:37:20.287Z,25
2016-09-25T10:37:46.489Z,25
2016-09-25T10:38:12.155Z,25
2016-09-25T10:38:38.257Z,25
2016-09-25T10:39:03.852Z,25
2016-09-25T10:39:30.064Z,25
2016-09-25T10:39:55.657Z,25
2016-09-25T10:40:21.221Z,25
2016-09-25T10:40:47.447Z,25
2016-09-25T10:41:13.009Z,25
2016-09-25T10:41:39.198Z,25
2016-09-25T10:42:04.763Z,25
2016-09-25T10:42:30.334Z,25
2016-09-25T10:42:56.581Z,25
2016-09-25T10:43:22.234Z,25
2016-09-25T10:43:48.352Z,25
2016-09-25T10:44:13.982Z,30
2016-09-25T10:44:40.270Z,30
2016-09-25T10:45:05.836Z,30
2016-09-25T10:46:14.349Z,30
2016-09-25T10:46:39.916Z,30
2016-09-25T10:47:05.493Z,30
2016-09-25T10:47:31.041Z,30
2016-09-25T10:47:56.605Z,30
2016-09-25T10:48:22.165Z,30
2016-09-25T10:48:47.749Z,30
2016-09-25T10:49:13.304Z,30
2016-09-25T10:49:38.897Z,30
2016-09-25T10:50:04.490Z,30
2016-09-25T10:50:30.071Z,30
2016-09-25T10:50:55.633Z,30
2016-09-25T10:51:21.198Z,30
2016-09-25T10:51:46.796Z,30
2016-09-25T10:52:12.389Z,30
2016-09-25T10:52:37.959Z,30
2016-09-25T10:53:03.520Z,30
2016-09-25T10:53:29.094Z,30
2016-09-25T10:53:54.708Z,30
2016-09-25T10:54:20.314Z,30
2016-09-25T10:54:45.860Z,30
2016-09-25T10:55:11.465Z,30
2016-09-25T10:55:37.018Z,35
2016-09-25T10:56:02.592Z,35
2016-09-25T10:56:28.137Z,35
2016-09-25T10:56:53.698Z,35
2016-09-25T10:57:19.282Z,35
2016-09-25T10:57:44.854Z,35
2016-09-25T10:58:10.424Z,35
2016-09-25T10:59:18.892Z,35
2016-09-25T10:59:44.464Z,35
2016-09-25T11:00:10.023Z,35
2016-09-25T11:00:35.632Z,35
2016-09-25T11:01:01.196Z,35
2016-09-25T11:01:26.772Z,35
2016-09-25T11:01:52.355Z,35
2016-09-25T11:02:18.004Z,35
2016-09-25T11:02:43.598Z,35
2016-09-25T11:03:09.149Z,35
2016-09-25T11:03:34.696Z,35
2016-09-25T11:04:00.279Z,35
2016-09-25T11:04:25.876Z,35
2016-09-25T11:04:51.441Z,35
2016-09-25T11:06:10.171Z,40
2016-09-25T11:06:35.740Z,40
2016-09-25T11:07:01.301Z,40
2016-09-25T11:07:26.939Z,40
2016-09-25T11:07:52.534Z,40
2016-09-25T11:08:18.100Z,40
2016-09-25T11:08:43.651Z,40
2016-09-25T11:09:09.346Z,40
2016-09-25T11:09:34.913Z,40
2016-09-25T11:10:00.450Z,40
2016-09-25T11:10:26.093Z,40
2016-09-25T11:10:51.697Z,40
2016-09-25T11:11:17.272Z,40
2016-09-25T11:11:42.862Z,40
2016-09-25T11:12:08.546Z,40
2016-09-25T11:12:34.106Z,40
2016-09-25T11:12:59.774Z,40
2016-09-25T11:13:25.398Z,40
2016-09-25T11:13:50.983Z,45
2016-09-25T11:14:16.548Z,45
2016-09-25T11:14:42.157Z,45
2016-09-25T11:15:07.743Z,45
2016-09-25T11:15:33.296Z,45
2016-09-25T11:15:58.898Z,45
2016-09-25T11:16:24.864Z,45
2016-09-25T11:16:50.455Z,45
2016-09-25T11:17:16.024Z,45
2016-09-25T11:17:41.630Z,45
2016-09-25T11:18:07.203Z,45
2016-09-25T11:18:32.807Z,45
2016-09-25T11:18:58.369Z,45
2016-09-25T11:19:23.958Z,45
2016-09-25T11:19:49.524Z,45
2016-09-25T11:20:15.094Z,45
2016-09-25T11:20:40.677Z,45
2016-09-25T11:21:06.236Z,45
2016-09-25T11:23:17.759Z,50
2016-09-25T11:23:43.337Z,50
2016-09-25T11:24:08.885Z,50
2016-09-25T11:24:34.431Z,50
2016-09-25T11:25:00.067Z,50
2016-09-25T11:25:25.678Z,50
2016-09-25T11:25:51.236Z,50
2016-09-25T11:29:01.605Z,55
2016-09-25T11:30:15.133Z,55
2016-09-25T11:30:40.703Z,55
2016-09-25T11:31:06.296Z,55
2016-09-25T11:31:31.869Z,55
2016-09-25T11:31:57.468Z,55
2016-09-25T11:32:23.064Z,55
2016-09-25T11:32:48.643Z,55
2016-09-25T11:33:14.206Z,55
2016-09-25T11:33:39.829Z,55
2016-09-25T11:34:05.481Z,55
2016-09-25T11:34:31.052Z,55
2016-09-25T11:34:56.630Z,55
2016-09-25T11:35:22.273Z,55
2016-09-25T11:35:47.832Z,55
2016-09-25T11:36:13.396Z,55
2016-09-25T11:36:38.953Z,55
2016-09-25T11:37:04.653Z,55
2016-09-25T11:37:30.249Z,55
2016-09-25T11:37:55.825Z,55
2016-09-25T11:38:21.469Z,55
2016-09-25T11:38:47.072Z,55
2016-09-25T11:39:12.660Z,55
2016-09-25T11:40:26.225Z,55
2016-09-25T11:40:51.793Z,60
2016-09-25T11:41:17.386Z,60
2016-09-25T11:41:42.957Z,60
2016-09-25T11:42:08.552Z,60
2016-09-25T11:42:34.104Z,60
2016-09-25T11:42:59.670Z,60
2016-09-25T11:44:13.094Z,60
2016-09-25T11:44:38.644Z,60
2016-09-25T11:45:04.222Z,60
2016-09-25T11:45:29.849Z,60
2016-09-25T11:45:55.488Z,60
2016-09-25T11:46:21.060Z,60
2016-09-25T11:46:46.664Z,65
2016-09-25T11:47:12.232Z,65
2016-09-25T11:47:37.773Z,65
2016-09-25T11:48:03.386Z,65
2016-09-25T11:48:29.057Z,65
2016-09-25T11:48:54.701Z,65
2016-09-25T11:49:20.238Z,65
2016-09-25T11:49:45.774Z,65
2016-09-25T11:50:11.392Z,65
2016-09-25T11:50:36.919Z,70
2016-09-25T11:51:02.458Z,65
2016-09-25T11:51:28.040Z,65
2016-09-25T11:51:53.557Z,65
2016-09-25T11:52:19.115Z,70
2016-09-25T11:52:44.668Z,70
2016-09-25T11:53:10.262Z,70
2016-09-25T11:53:35.767Z,70
2016-09-25T11:54:01.344Z,70
2016-09-25T11:54:26.886Z,70
2016-09-25T11:54:52.441Z,70
2016-09-25T11:55:17.977Z,70
2016-09-25T11:55:43.584Z,75
2016-09-25T11:56:09.130Z,75
2016-09-25T11:56:34.686Z,75
2016-09-25T11:57:00.293Z,75
2016-09-25T11:57:25.853Z,75
2016-09-25T11:57:51.376Z,75
2016-09-25T11:58:16.963Z,75
2016-09-25T11:58:42.517Z,75
2016-09-25T11:59:08.062Z,75
2016-09-25T11:59:33.645Z,75
2016-09-25T11:59:59.223Z,75
2016-09-25T12:00:24.971Z,75
2016-09-25T12:00:50.549Z,75
2016-09-25T12:01:16.108Z,80
2016-09-25T12:01:41.667Z,75
2016-09-25T12:02:07.218Z,80
2016-09-25T12:02:32.760Z,80
2016-09-25T12:02:58.331Z,80
2016-09-25T12:03:23.905Z,80
2016-09-25T13:38:25.724Z,120
2016-09-25T13:38:51.272Z,115
2016-09-25T13:39:16.878Z,110
2016-09-25T13:39:42.449Z,115
2016-09-25T13:40:08.025Z,105
2016-09-25T13:40:33.610Z,90
2016-09-25T13:40:59.183Z,140
2016-09-25T13:41:24.782Z,125
2016-09-25T13:41:50.373Z,145
2016-09-25T13:42:15.976Z,135
2016-09-25T13:42:41.549Z,135
2016-09-25T13:43:07.130Z,140